createdAt,value
2023-02-14T00:02:08.548Z,25.73
2023-02-14T00:04:38.345Z,25.33
2023-02-14T00:07:07.268Z,22.95
2023-02-14T00:09:34.704Z,24.92
2023-02-14T00:12:02.159Z,24.63
2023-02-14T00:14:47.236Z,25.25
2023-02-14T00:17:14.684Z,24.42
2023-02-14T00:19:42.158Z,23.77
2023-02-14T00:22:10.932Z,25.30
2023-02-14T00:24:38.621Z,25.20
2023-02-14T00:27:06.179Z,24.63
2023-02-14T00:29:34.299Z,24.42
2023-02-14T00:32:02.246Z,25.58
2023-02-14T00:34:29.844Z,24.05
2023-02-14T00:36:57.315Z,23.90
2023-02-14T00:39:26.132Z,24.75
2023-02-14T00:41:53.610Z,24.83
2023-02-14T00:44:21.163Z,24.08
2023-02-14T00:46:48.592Z,21.85
2023-02-14T00:49:16.161Z,21.95
2023-02-14T00:51:43.673Z,24.05
2023-02-14T00:54:11.160Z,24.30
2023-02-14T00:56:39.940Z,24.02
2023-02-14T00:59:07.376Z,23.45
2023-02-14T01:01:34.916Z,23.05
2023-02-14T01:04:02.814Z,23.95
2023-02-14T01:06:30.327Z,24.85
2023-02-14T01:08:58.096Z,23.27
2023-02-14T01:11:26.231Z,24.85
2023-02-14T01:13:56.226Z,22.50
2023-02-14T01:16:24.715Z,22.27
2023-02-14T01:18:52.320Z,22.45
2023-02-14T01:21:21.808Z,21.92
2023-02-14T01:23:51.655Z,23.13
2023-02-14T01:26:19.631Z,21.70
2023-02-14T01:28:47.121Z,23.90
2023-02-14T01:31:18.767Z,25.98
2023-02-14T01:33:47.559Z,26.20
2023-02-14T01:36:19.517Z,27.52
2023-02-14T01:38:47.585Z,27.60
2023-02-14T01:41:15.566Z,26.05
2023-02-14T01:43:55.777Z,26.63
2023-02-14T01:46:26.058Z,26.65
2023-02-14T01:48:55.511Z,28.52
2023-02-14T01:51:23.573Z,26.80
2023-02-14T01:53:51.419Z,27.85
2023-02-14T01:56:21.927Z,24.45
2023-02-14T01:58:51.894Z,23.88
2023-02-14T02:01:19.666Z,24.80
2023-02-14T02:03:50.369Z,24.67
2023-02-14T02:06:20.540Z,23.65
2023-02-14T02:08:53.286Z,24.75
2023-02-14T02:11:20.779Z,24.15
2023-02-14T02:13:48.197Z,23.52
2023-02-14T02:16:48.962Z,25.40
2023-02-14T02:19:45.674Z,22.90
2023-02-14T02:22:31.444Z,21.58
2023-02-14T02:25:03.241Z,22.25
2023-02-14T02:27:52.576Z,22.05
2023-02-14T02:30:48.111Z,20.65
2023-02-14T02:33:48.780Z,22.27
2023-02-14T02:36:50.387Z,24.25
2023-02-14T02:39:28.605Z,21.42
2023-02-14T02:42:04.996Z,22.55
2023-02-14T02:44:42.964Z,25.13
2023-02-14T02:47:17.575Z,22.67
2023-02-14T02:50:06.557Z,22.13
2023-02-14T02:52:58.010Z,22.33
2023-02-14T02:55:28.884Z,20.60
2023-02-14T02:57:56.277Z,17.00
2023-02-14T03:00:25.025Z,23.92
2023-02-14T03:03:12.175Z,22.60
2023-02-14T03:05:39.753Z,22.48
2023-02-14T03:08:08.652Z,22.23
2023-02-14T03:10:38.497Z,25.52
2023-02-14T03:13:32.372Z,25.95
2023-02-14T03:16:24.797Z,27.42
2023-02-14T03:19:24.154Z,27.60
2023-02-14T03:21:55.799Z,26.95
2023-02-14T03:24:29.382Z,27.55
2023-02-14T03:27:03.151Z,28.65
2023-02-14T03:29:42.441Z,28.15
2023-02-14T03:32:15.558Z,27.15
2023-02-14T03:34:49.253Z,27.15
2023-02-14T03:37:18.696Z,26.10
2023-02-14T03:39:54.283Z,24.45
2023-02-14T03:42:25.718Z,25.63
2023-02-14T03:44:54.591Z,26.08
2023-02-14T03:47:25.124Z,28.88
2023-02-14T03:49:54.754Z,31.73
2023-02-14T03:52:22.824Z,30.95
2023-02-14T03:54:53.697Z,31.05
2023-02-14T03:57:24.947Z,29.02
2023-02-14T03:59:52.988Z,30.17
2023-02-14T04:02:22.991Z,30.48
2023-02-14T04:04:51.437Z,27.92
2023-02-14T04:07:20.645Z,25.85
2023-02-14T04:09:48.754Z,26.35
2023-02-14T04:12:26.442Z,30.60
2023-02-14T04:14:56.807Z,29.65
2023-02-14T04:17:42.269Z,29.20
2023-02-14T04:20:10.781Z,28.05
2023-02-14T04:22:38.479Z,26.65
2023-02-14T04:25:06.573Z,23.92
2023-02-14T04:27:35.327Z,26.00
2023-02-14T04:30:02.825Z,26.15
2023-02-14T04:32:30.415Z,24.17
2023-02-14T04:34:58.037Z,25.08
2023-02-14T04:37:25.465Z,27.65
2023-02-14T04:39:52.908Z,28.15
2023-02-14T04:42:20.359Z,29.20
2023-02-14T04:44:49.154Z,28.05
2023-02-14T04:47:16.634Z,27.65
2023-02-14T04:49:44.060Z,26.42
2023-02-14T04:52:13.159Z,29.05
2023-02-14T04:54:40.609Z,28.20
2023-02-14T04:57:08.093Z,30.15
2023-02-14T04:59:35.656Z,28.08
2023-02-14T05:02:04.560Z,29.38
2023-02-14T05:04:32.027Z,27.30
2023-02-14T05:06:59.483Z,27.35
2023-02-14T05:09:26.907Z,25.80
2023-02-14T05:11:54.372Z,24.90
2023-02-14T05:14:21.881Z,23.65
2023-02-14T05:16:49.324Z,23.85
2023-02-14T05:19:18.052Z,24.67
2023-02-14T05:21:45.550Z,24.88
2023-02-14T05:24:13.025Z,25.10
2023-02-14T05:26:40.967Z,24.88
2023-02-14T05:29:08.455Z,28.02
2023-02-14T05:31:36.176Z,28.33
2023-02-14T05:34:03.899Z,26.02
2023-02-14T05:36:32.690Z,27.48
2023-02-14T05:39:00.168Z,27.10
2023-02-14T05:41:27.666Z,26.35
2023-02-14T05:43:55.145Z,24.65
2023-02-14T05:46:31.955Z,25.73
2023-02-14T05:48:59.588Z,24.65
2023-02-14T05:51:27.094Z,23.52
2023-02-14T05:53:57.786Z,24.27
2023-02-14T05:56:25.299Z,24.25
2023-02-14T05:58:52.756Z,27.00
2023-02-14T06:01:20.245Z,30.45
2023-02-14T06:03:47.744Z,28.35
2023-02-14T06:06:15.207Z,28.42
2023-02-14T06:08:42.679Z,28.77
2023-02-14T06:11:11.501Z,28.05
2023-02-14T06:13:41.403Z,26.80
2023-02-14T06:16:08.898Z,28.60
2023-02-14T06:18:36.379Z,27.45
2023-02-14T06:21:04.197Z,29.35
2023-02-14T06:23:31.676Z,28.02
2023-02-14T06:25:59.247Z,27.30
2023-02-14T06:28:27.996Z,26.75
2023-02-14T06:30:55.706Z,24.10
2023-02-14T06:33:23.262Z,27.02
2023-02-14T06:35:50.763Z,22.98
2023-02-14T06:38:18.200Z,24.40
2023-02-14T06:40:45.694Z,26.95
2023-02-14T06:43:13.190Z,26.52
2023-02-14T06:45:44.033Z,28.02
2023-02-14T06:48:11.511Z,22.55
2023-02-14T06:50:39.052Z,29.42
2023-02-14T06:53:06.485Z,30.33
2023-02-14T06:55:33.977Z,27.15
2023-02-14T06:58:01.436Z,27.50
2023-02-14T07:00:29.217Z,29.13
2023-02-14T07:02:58.159Z,26.15
2023-02-14T07:05:25.726Z,27.02
2023-02-14T07:07:53.231Z,25.25
2023-02-14T07:10:20.815Z,25.85
2023-02-14T07:12:48.295Z,25.58
2023-02-14T07:15:16.116Z,28.70
2023-02-14T07:17:44.103Z,26.00
2023-02-14T07:20:15.610Z,27.10
2023-02-14T07:22:43.069Z,28.83
2023-02-14T07:25:11.525Z,28.02
2023-02-14T07:27:39.312Z,23.30
2023-02-14T07:30:08.456Z,27.20
2023-02-14T07:32:36.054Z,24.88
2023-02-14T07:35:03.617Z,26.55
2023-02-14T07:37:34.276Z,25.90
2023-02-14T07:40:02.255Z,25.00
2023-02-14T07:42:29.675Z,27.90
2023-02-14T07:44:57.140Z,29.67
2023-02-14T07:47:25.081Z,28.73
2023-02-14T07:49:52.571Z,29.90
2023-02-14T07:52:20.165Z,29.40
2023-02-14T07:54:48.930Z,31.25
2023-02-14T07:57:16.388Z,29.55
2023-02-14T07:59:43.792Z,28.15
2023-02-14T08:02:11.915Z,27.33
2023-02-14T08:04:39.428Z,25.00
2023-02-14T08:07:06.971Z,23.02
2023-02-14T08:09:34.462Z,24.90
2023-02-14T08:12:21.204Z,25.63
2023-02-14T08:14:48.647Z,28.52
2023-02-14T08:17:16.116Z,31.40
2023-02-14T08:19:43.640Z,29.48
2023-02-14T08:22:11.223Z,29.20
2023-02-14T08:24:38.682Z,29.08
2023-02-14T08:27:07.481Z,26.65
2023-02-14T08:29:34.919Z,27.42
2023-02-14T08:32:02.586Z,27.90
2023-02-14T08:34:30.133Z,27.48
2023-02-14T08:36:57.588Z,28.92
2023-02-14T08:39:25.200Z,27.38
2023-02-14T08:41:52.746Z,27.13
2023-02-14T08:44:21.817Z,27.02
2023-02-14T08:46:49.359Z,26.13
2023-02-14T08:49:16.802Z,26.33
2023-02-14T08:51:44.268Z,27.05
2023-02-14T08:54:11.742Z,27.45
2023-02-14T08:56:40.659Z,26.35
2023-02-14T08:59:08.136Z,25.95
2023-02-14T09:01:37.246Z,27.05
2023-02-14T09:04:04.898Z,26.88
2023-02-14T09:06:33.184Z,27.38
2023-02-14T09:09:02.464Z,25.40
2023-02-14T09:11:30.176Z,29.27
2023-02-14T09:13:58.355Z,27.08
2023-02-14T09:16:26.686Z,27.50
2023-02-14T09:18:56.703Z,26.42
2023-02-14T09:21:25.659Z,28.58
2023-02-14T09:23:53.157Z,26.05
2023-02-14T09:26:20.869Z,26.58
2023-02-14T09:28:48.890Z,29.05
2023-02-14T09:31:19.370Z,27.83
2023-02-14T09:34:06.173Z,26.98
2023-02-14T09:36:35.005Z,26.10
2023-02-14T09:39:02.616Z,24.98
2023-02-14T09:41:49.626Z,24.98
2023-02-14T09:44:25.187Z,25.50
2023-02-14T09:46:54.815Z,26.75
2023-02-14T09:49:31.051Z,24.55
2023-02-14T09:52:00.753Z,25.30
2023-02-14T09:54:29.340Z,25.50
2023-02-14T09:56:59.689Z,25.65
2023-02-14T09:59:30.664Z,23.60
2023-02-14T10:02:00.577Z,25.93
2023-02-14T10:04:33.569Z,26.58
2023-02-14T10:07:09.582Z,26.95
2023-02-14T10:09:57.293Z,24.75
2023-02-14T10:12:28.777Z,25.65
2023-02-14T10:14:58.679Z,25.10
2023-02-14T10:17:32.421Z,25.10
2023-02-14T10:20:03.134Z,24.85
2023-02-14T10:22:40.785Z,24.55
2023-02-14T10:25:15.396Z,25.40
2023-02-14T10:27:46.245Z,25.45
2023-02-14T10:30:15.380Z,26.05
2023-02-14T10:32:46.964Z,23.27
2023-02-14T10:35:24.195Z,25.92
2023-02-14T10:38:01.473Z,25.88
2023-02-14T10:40:58.935Z,25.35
2023-02-14T10:43:32.869Z,22.48
2023-02-14T10:46:07.137Z,24.35
2023-02-14T10:48:48.120Z,24.70
2023-02-14T10:51:17.929Z,21.50
2023-02-14T10:53:56.938Z,24.90
2023-02-14T10:56:27.939Z,24.73
2023-02-14T10:58:56.625Z,25.83
2023-02-14T11:01:24.766Z,25.02
2023-02-14T11:03:54.547Z,25.30
2023-02-14T11:06:22.320Z,24.08
2023-02-14T11:08:51.160Z,25.63
2023-02-14T11:11:22.316Z,23.88
2023-02-14T11:13:49.985Z,26.48
2023-02-14T11:16:29.081Z,26.20
2023-02-14T11:19:10.193Z,26.70
2023-02-14T11:21:39.891Z,25.17
2023-02-14T11:24:19.973Z,25.05
2023-02-14T11:26:48.946Z,25.17
2023-02-14T11:29:24.344Z,25.05
2023-02-14T11:31:52.052Z,25.60
2023-02-14T11:34:29.568Z,25.50
2023-02-14T11:36:57.108Z,25.25
2023-02-14T11:39:30.784Z,23.48
2023-02-14T11:42:00.858Z,25.15
2023-02-14T11:44:29.943Z,25.13
2023-02-14T11:46:58.882Z,23.90
2023-02-14T11:49:29.693Z,25.10
2023-02-14T11:51:59.047Z,23.70
2023-02-14T11:54:32.667Z,25.92
2023-02-14T11:57:04.734Z,23.33
2023-02-14T11:59:33.935Z,25.48
2023-02-14T12:02:04.116Z,23.58
2023-02-14T12:04:45.637Z,24.65
2023-02-14T12:07:19.865Z,24.65
2023-02-14T12:09:49.676Z,24.27
2023-02-14T12:12:20.359Z,24.25
2023-02-14T12:14:48.330Z,21.63
2023-02-14T12:17:24.606Z,21.70
2023-02-14T12:19:55.776Z,22.45
2023-02-14T12:22:28.404Z,22.13
2023-02-14T12:25:04.575Z,21.38
2023-02-14T12:27:37.823Z,19.73
2023-02-14T12:30:08.223Z,19.83
2023-02-14T12:32:35.742Z,19.55
2023-02-14T12:35:08.252Z,19.55
2023-02-14T12:37:42.091Z,21.17
2023-02-14T12:40:19.386Z,21.17
2023-02-14T12:43:00.973Z,19.15
2023-02-14T12:45:43.775Z,20.30
2023-02-14T12:48:20.356Z,20.25
2023-02-14T12:50:50.637Z,20.27
2023-02-14T12:53:32.172Z,21.50
2023-02-14T12:56:07.575Z,20.33
2023-02-14T12:58:50.593Z,20.33
2023-02-14T13:01:38.523Z,20.23
2023-02-14T13:04:38.457Z,22.60
2023-02-14T13:07:13.073Z,21.77
2023-02-14T13:09:47.036Z,22.17
2023-02-14T13:12:26.937Z,20.70
2023-02-14T13:15:01.690Z,21.75
2023-02-14T13:17:36.951Z,20.63
2023-02-14T13:20:14.953Z,22.75
2023-02-14T13:22:42.834Z,21.05
2023-02-14T13:25:21.710Z,23.27
2023-02-14T13:27:51.151Z,22.40
2023-02-14T13:30:24.933Z,22.23
2023-02-14T13:32:54.565Z,21.95
2023-02-14T13:35:23.831Z,21.38
2023-02-14T13:37:55.190Z,22.25
2023-02-14T13:40:24.286Z,21.10
2023-02-14T13:42:56.068Z,21.83
2023-02-14T13:45:55.217Z,21.90
2023-02-14T13:48:24.731Z,21.67
2023-02-14T13:50:55.083Z,22.65
2023-02-14T13:53:31.767Z,22.98
2023-02-14T13:55:59.996Z,22.35
2023-02-14T13:58:29.466Z,23.08
2023-02-14T14:00:57.209Z,22.10
2023-02-14T14:04:01.760Z,22.98
2023-02-14T14:06:29.715Z,21.90
2023-02-14T14:08:57.818Z,22.15
2023-02-14T14:12:01.752Z,22.63
2023-02-14T14:14:39.732Z,21.88
2023-02-14T14:17:26.029Z,23.42
2023-02-14T14:19:54.082Z,22.33
2023-02-14T14:22:22.264Z,24.05
2023-02-14T14:24:54.881Z,22.23
2023-02-14T14:27:24.194Z,31.33
2023-02-14T14:29:54.961Z,23.90
2023-02-14T14:32:27.720Z,24.40
2023-02-14T14:34:57.275Z,23.73
2023-02-14T14:37:26.813Z,21.75
2023-02-14T14:39:55.823Z,23.48
2023-02-14T14:42:25.480Z,23.75
2023-02-14T14:44:56.032Z,24.00
2023-02-14T14:47:25.360Z,23.33
2023-02-14T14:49:54.521Z,24.77
2023-02-14T14:52:35.244Z,24.33
2023-02-14T14:55:04.301Z,24.13
2023-02-14T14:57:32.045Z,22.88
2023-02-14T15:00:19.734Z,24.77
2023-02-14T15:02:58.108Z,27.95
2023-02-14T15:05:27.629Z,22.83
2023-02-14T15:07:55.102Z,21.60
2023-02-14T15:10:25.001Z,23.25
2023-02-14T15:13:11.353Z,24.15
2023-02-14T15:15:40.209Z,23.20
2023-02-14T15:18:07.951Z,23.60
2023-02-14T15:20:36.906Z,24.00
2023-02-14T15:23:05.773Z,25.83
2023-02-14T15:25:34.456Z,24.73
2023-02-14T15:28:02.481Z,23.83
2023-02-14T15:30:34.248Z,25.05
2023-02-14T15:35:32.838Z,24.33
2023-02-14T15:38:03.109Z,24.33
2023-02-14T15:40:32.232Z,23.90
2023-02-14T15:43:03.514Z,26.20
2023-02-14T15:45:31.997Z,26.40
2023-02-14T15:48:01.251Z,24.40
2023-02-14T15:50:32.058Z,25.58
2023-02-14T15:53:04.504Z,24.98
2023-02-14T15:55:33.020Z,25.88
2023-02-14T15:58:01.730Z,26.52
2023-02-14T16:00:29.576Z,23.92
2023-02-14T16:03:00.343Z,25.33
2023-02-14T16:05:28.085Z,24.17
2023-02-14T16:08:03.536Z,25.13
2023-02-14T16:10:33.226Z,24.33
2023-02-14T16:13:03.055Z,25.73
2023-02-14T16:15:32.297Z,23.95
2023-02-14T16:18:01.009Z,23.48
2023-02-14T16:20:47.078Z,22.05
2023-02-14T16:23:18.407Z,24.92
2023-02-14T16:25:47.268Z,24.50
2023-02-14T16:28:15.587Z,27.40
2023-02-14T16:30:44.168Z,23.15
2023-02-14T16:33:15.185Z,22.63
2023-02-14T16:35:43.625Z,18.47
2023-02-14T16:38:15.854Z,27.00
2023-02-14T16:40:46.321Z,26.85
2023-02-14T16:43:14.916Z,26.40
2023-02-14T16:45:42.544Z,25.48
2023-02-14T16:48:10.398Z,25.77
2023-02-14T16:50:39.261Z,25.75
2023-02-14T16:53:07.460Z,25.33
2023-02-14T16:55:35.003Z,25.17
2023-02-14T16:58:03.966Z,24.52
2023-02-14T17:00:32.484Z,24.23
2023-02-14T17:03:07.157Z,22.73
2023-02-14T17:05:36.012Z,24.10
2023-02-14T17:08:04.443Z,23.75
2023-02-14T17:10:32.220Z,22.95
2023-02-14T17:12:59.967Z,24.90
2023-02-14T17:15:29.759Z,26.17
2023-02-14T17:17:59.129Z,23.60
2023-02-14T17:20:26.660Z,25.83
2023-02-14T17:22:55.473Z,23.08
2023-02-14T17:25:22.977Z,23.73
2023-02-14T17:27:50.407Z,24.95
2023-02-14T17:30:18.691Z,25.13
2023-02-14T17:32:49.494Z,22.33
2023-02-14T17:35:17.273Z,24.30
2023-02-14T17:37:44.878Z,24.00
2023-02-14T17:40:13.284Z,24.65
2023-02-14T17:42:41.068Z,23.98
2023-02-14T17:45:11.829Z,24.38
2023-02-14T17:47:40.409Z,25.15
2023-02-14T17:50:10.644Z,22.77
2023-02-14T17:52:38.350Z,23.42
2023-02-14T17:55:06.277Z,24.58
2023-02-14T17:57:33.803Z,23.85
2023-02-14T18:00:01.990Z,25.30
2023-02-14T18:02:29.760Z,23.38
2023-02-14T18:04:57.773Z,24.40
2023-02-14T18:07:27.065Z,22.83
2023-02-14T18:09:54.497Z,23.27
2023-02-14T18:12:21.969Z,21.55
2023-02-14T18:14:49.386Z,23.52
2023-02-14T18:17:17.288Z,22.25
2023-02-14T18:19:46.575Z,22.10
2023-02-14T18:22:14.041Z,21.48
2023-02-14T18:24:42.819Z,23.05
2023-02-14T18:27:10.339Z,23.75
2023-02-14T18:29:39.331Z,23.17
2023-02-14T18:32:06.852Z,23.60
2023-02-14T18:34:37.100Z,23.95
2023-02-14T18:37:06.038Z,23.17
2023-02-14T18:39:33.974Z,22.92
2023-02-14T18:42:03.722Z,22.55
2023-02-14T18:44:31.527Z,22.23
2023-02-14T18:47:02.668Z,21.73
2023-02-14T18:49:30.222Z,17.30
2023-02-14T18:51:58.775Z,21.58
2023-02-14T18:54:26.230Z,22.52
2023-02-14T18:56:53.671Z,21.50
2023-02-14T18:59:22.538Z,23.02
2023-02-14T19:01:50.011Z,22.70
2023-02-14T19:04:17.948Z,22.77
2023-02-14T19:06:45.434Z,22.63
2023-02-14T19:09:14.256Z,22.27
2023-02-14T19:11:42.030Z,21.73
2023-02-14T19:14:11.072Z,22.80
2023-02-14T19:16:43.737Z,23.85
2023-02-14T19:19:12.364Z,23.98
2023-02-14T19:21:39.911Z,23.10
2023-02-14T19:24:08.199Z,22.90
2023-02-14T19:26:40.171Z,22.00
2023-02-14T19:29:09.534Z,23.73
2023-02-14T19:31:40.056Z,22.27
2023-02-14T19:34:10.048Z,21.40
2023-02-14T19:36:38.264Z,22.15
2023-02-14T19:39:06.249Z,22.65
2023-02-14T19:41:35.308Z,22.23
2023-02-14T19:44:05.419Z,21.00
2023-02-14T19:46:34.294Z,22.35
2023-02-14T19:49:02.409Z,23.67
2023-02-14T19:51:33.850Z,22.67
2023-02-14T19:54:03.426Z,21.98
2023-02-14T19:56:34.272Z,20.73
2023-02-14T19:59:07.600Z,24.27
2023-02-14T20:01:37.680Z,23.63
2023-02-14T20:04:07.408Z,21.77
2023-02-14T20:06:37.310Z,22.92
2023-02-14T20:09:04.897Z,22.90
2023-02-14T20:11:35.664Z,22.23
2023-02-14T20:14:04.834Z,23.27
2023-02-14T20:16:33.197Z,20.95
2023-02-14T20:19:02.577Z,21.90
2023-02-14T20:21:30.188Z,22.67
2023-02-14T20:24:00.772Z,23.55
2023-02-14T20:26:28.751Z,23.23
2023-02-14T20:28:56.312Z,24.42
2023-02-14T20:31:23.890Z,22.85
2023-02-14T20:33:51.948Z,25.27
2023-02-14T20:36:19.941Z,24.50
2023-02-14T20:38:47.467Z,27.33
2023-02-14T20:41:17.340Z,24.70
2023-02-14T20:43:44.987Z,25.45
2023-02-14T20:46:12.489Z,24.27
2023-02-14T20:48:39.966Z,24.80
2023-02-14T20:51:12.263Z,25.00
2023-02-14T20:53:40.003Z,26.50
2023-02-14T20:56:07.923Z,26.60
2023-02-14T20:58:37.961Z,27.52
2023-02-14T21:01:09.768Z,25.83
2023-02-14T21:06:06.618Z,26.90
2023-02-14T21:08:34.665Z,28.17
2023-02-14T21:11:02.558Z,26.85
2023-02-14T21:13:30.535Z,27.83
2023-02-14T21:16:03.849Z,27.98
2023-02-14T21:18:31.599Z,28.58
2023-02-14T21:21:05.091Z,27.85
2023-02-14T21:23:32.575Z,28.92
2023-02-14T21:26:00.191Z,28.30
2023-02-14T21:28:27.904Z,30.55
2023-02-14T21:31:04.601Z,29.40
2023-02-14T21:33:33.001Z,31.33
2023-02-14T21:36:06.791Z,31.58
2023-02-14T21:38:34.489Z,33.05
2023-02-14T21:41:04.837Z,33.28
2023-02-14T21:43:34.832Z,33.97
2023-02-14T21:46:05.756Z,34.03
2023-02-14T21:48:51.664Z,35.57
2023-02-14T21:51:19.904Z,33.40
2023-02-14T21:53:47.571Z,33.05
2023-02-14T21:56:19.556Z,34.80
2023-02-14T21:58:47.759Z,34.47
2023-02-14T22:01:18.332Z,33.72
2023-02-14T22:03:45.959Z,32.03
2023-02-14T22:06:14.118Z,32.70
2023-02-14T22:08:42.092Z,32.47
2023-02-14T22:11:11.224Z,33.25
2023-02-14T22:13:38.691Z,31.77
2023-02-14T22:16:08.664Z,30.92
2023-02-14T22:18:37.744Z,30.80
2023-02-14T22:21:07.302Z,28.45
2023-02-14T22:23:35.240Z,30.48
2023-02-14T22:26:10.071Z,30.45
2023-02-14T22:28:37.710Z,31.70
2023-02-14T22:31:05.409Z,29.73
2023-02-14T22:33:33.087Z,30.50
2023-02-14T22:36:02.527Z,32.20
2023-02-14T22:38:30.788Z,30.80
2023-02-14T22:41:05.657Z,29.55
2023-02-14T22:43:33.144Z,28.30
2023-02-14T22:46:03.426Z,31.30
2023-02-14T22:48:32.231Z,29.75
2023-02-14T22:51:09.225Z,27.77
2023-02-14T22:53:36.724Z,26.65
2023-02-14T22:56:14.708Z,26.85
2023-02-14T22:58:42.571Z,28.35
2023-02-14T23:01:13.998Z,27.08
2023-02-14T23:03:41.486Z,26.10
2023-02-14T23:06:10.706Z,26.80
2023-02-14T23:08:39.917Z,26.77
2023-02-14T23:11:09.121Z,26.00
2023-02-14T23:13:54.538Z,27.05
2023-02-14T23:16:39.714Z,24.95
2023-02-14T23:19:25.139Z,24.67
2023-02-14T23:22:01.761Z,24.83
2023-02-14T23:24:29.225Z,25.85
2023-02-14T23:26:56.756Z,24.23
2023-02-14T23:29:24.212Z,23.90
2023-02-14T23:31:51.801Z,24.98
2023-02-14T23:34:19.570Z,25.60
2023-02-14T23:36:47.339Z,24.38
2023-02-14T23:39:16.101Z,24.70
2023-02-14T23:41:49.834Z,23.40
2023-02-14T23:44:23.609Z,23.90
2023-02-14T23:46:53.068Z,23.63
2023-02-14T23:49:20.974Z,22.05
2023-02-14T23:51:51.176Z,22.92
2023-02-14T23:54:20.815Z,22.58
2023-02-14T23:56:48.540Z,24.42
2023-02-14T23:59:16.890Z,23.70
